Time;durP1;ratioP1;P1;durP2;ratioP2;P2;SDS_P1;SDS_P2;PMS_P1;PMS_P2;Temp;Humidity;BMP_temperature;BMP_pressure;BME280_temperature;BME280_humidity;BME280_pressure;Samples;Min_cycle;Max_cycle;Signal;HPM_P1;HPM_P2
2021/07/14 00:01:58;;;;;;;6.47;2.83;;;15.40;99.90;;;;;;5014099;28;20061;-69
2021/07/14 00:04:24;;;;;;;9.63;2.95;;;15.50;99.90;;;;;;5014348;28;20459;-69
2021/07/14 00:06:50;;;;;;;4.18;3.25;;;15.50;99.90;;;;;;5014177;28;20376;-69
2021/07/14 00:09:16;;;;;;;9.68;3.50;;;15.60;99.90;;;;;;5012971;28;20041;-69
2021/07/14 00:11:44;;;;;;;5.85;3.45;;;15.60;99.90;;;;;;5013988;28;20041;-69
2021/07/14 00:22:24;;;;;;;10.52;4.82;;;15.60;99.90;;;;;;5013878;28;20038;-68
2021/07/14 00:24:50;;;;;;;7.05;4.38;;;15.70;99.90;;;;;;5013657;28;20037;-68
2021/07/14 00:27:16;;;;;;;8.80;4.65;;;15.70;99.90;;;;;;5013822;28;20026;-68
2021/07/14 00:29:50;;;;;;;9.07;4.90;;;15.70;99.90;;;;;;5013811;28;20034;-69
2021/07/14 00:32:16;;;;;;;8.52;5.20;;;15.70;99.90;;;;;;5013550;28;20117;-68
2021/07/14 00:34:42;;;;;;;10.30;4.97;;;15.80;99.90;;;;;;5013653;28;20030;-68
2021/07/14 00:37:08;;;;;;;7.25;4.85;;;15.90;99.90;;;;;;5013559;28;20471;-68
2021/07/14 00:39:35;;;;;;;8.45;4.82;;;15.90;99.90;;;;;;5013682;28;20033;-69
2021/07/14 00:42:01;;;;;;;7.80;4.30;;;15.90;99.90;;;;;;5013606;28;20041;-69
2021/07/14 00:44:26;;;;;;;5.63;3.53;;;15.90;99.90;;;;;;5013441;28;20407;-68
2021/07/14 00:46:54;;;;;;;6.65;3.72;;;16.00;99.90;;;;;;5013316;28;20052;-69
2021/07/14 00:49:21;;;;;;;12.60;4.00;;;15.90;99.90;;;;;;5012299;28;20037;-69
2021/07/14 00:51:47;;;;;;;5.20;3.35;;;15.90;99.90;;;;;;5012144;28;20030;-69
2021/07/14 00:54:13;;;;;;;5.60;3.38;;;15.90;99.90;;;;;;5012106;28;20584;-69
2021/07/14 00:56:40;;;;;;;9.02;3.22;;;15.90;99.90;;;;;;5013380;28;20079;-69
2021/07/14 00:59:06;;;;;;;4.35;2.40;;;15.90;99.90;;;;;;5013007;28;20044;-69
2021/07/14 01:01:34;;;;;;;5.15;2.55;;;16.00;99.90;;;;;;5011988;28;20030;-70
2021/07/14 01:04:22;;;;;;;4.25;2.65;;;16.10;99.90;;;;;;5013077;28;20395;-69
2021/07/14 01:07:22;;;;;;;5.03;2.80;;;16.10;99.90;;;;;;5012045;28;20034;-69
2021/07/14 01:10:26;;;;;;;3.85;2.30;;;16.10;99.90;;;;;;5012106;28;20498;-69
2021/07/14 01:13:12;;;;;;;6.68;2.40;;;16.20;99.90;;;;;;5007192;28;20558;-69
2021/07/14 01:16:01;;;;;;;4.82;2.30;;;16.30;99.90;;;;;;5011653;28;20121;-69
2021/07/14 01:18:39;;;;;;;5.63;2.72;;;16.40;99.90;;;;;;5011615;28;20487;-69
2021/07/14 01:21:24;;;;;;;6.30;3.13;;;16.20;99.90;;;;;;5012603;28;20406;-69
2021/07/14 01:24:01;;;;;;;8.32;3.38;;;15.90;99.90;;;;;;5011999;28;20061;-69
2021/07/14 01:26:33;;;;;;;7.85;3.72;;;15.70;99.90;;;;;;5011635;28;20062;-69
2021/07/14 01:29:06;;;;;;;9.05;3.50;;;15.60;99.90;;;;;;5012902;28;20502;-69
2021/07/14 01:31:35;;;;;;;6.25;3.20;;;15.70;99.90;;;;;;5011558;28;20449;-69
2021/07/14 01:34:05;;;;;;;5.38;3.40;;;15.80;99.90;;;;;;5011329;28;20030;-69
2021/07/14 01:36:32;;;;;;;5.90;3.45;;;15.80;99.90;;;;;;5011346;28;20034;-69
2021/07/14 01:38:59;;;;;;;7.28;3.13;;;15.70;99.90;;;;;;5011388;28;20125;-69
2021/07/14 01:41:33;;;;;;;11.82;3.53;;;15.80;99.90;;;;;;5011137;28;20034;-69
2021/07/14 01:44:01;;;;;;;10.40;4.05;;;15.80;99.90;;;;;;5012739;28;20022;-69
2021/07/14 01:46:31;;;;;;;7.28;4.05;;;15.70;99.90;;;;;;5011196;28;20084;-69
2021/07/14 01:49:03;;;;;;;9.30;3.65;;;15.60;99.90;;;;;;5011216;28;20030;-69
2021/07/14 01:51:31;;;;;;;6.90;4.57;;;15.50;99.90;;;;;;5012493;28;20449;-69
2021/07/14 01:54:00;;;;;;;8.27;4.60;;;15.40;99.90;;;;;;5011071;28;20026;-69
2021/07/14 01:56:27;;;;;;;8.88;4.47;;;15.30;99.90;;;;;;5010951;28;20116;-70
2021/07/14 01:58:54;;;;;;;12.57;5.30;;;15.30;99.90;;;;;;5011543;28;20666;-69
2021/07/14 02:01:20;;;;;;;27.10;4.50;;;15.30;99.90;;;;;;5011213;28;20034;-69
2021/07/14 02:06:34;;;;;;;10.60;4.47;;;15.20;99.90;;;;;;5012538;28;20041;-69
2021/07/14 02:09:00;;;;;;;11.80;4.82;;;15.20;99.90;;;;;;5011008;28;20034;-69
2021/07/14 02:11:27;;;;;;;6.95;4.15;;;15.10;99.90;;;;;;5013387;28;20054;-69
2021/07/14 02:13:55;;;;;;;8.30;4.45;;;15.10;99.90;;;;;;5015263;28;20064;-69
2021/07/14 02:16:23;;;;;;;8.90;5.22;;;15.10;99.90;;;;;;5014729;28;20536;-69
2021/07/14 02:18:55;;;;;;;6.55;3.55;;;15.20;99.90;;;;;;5015013;28;20034;-69
2021/07/14 02:21:23;;;;;;;5.63;3.55;;;15.20;99.90;;;;;;5016243;28;20029;-69
2021/07/14 02:23:49;;;;;;;7.18;4.10;;;15.20;99.90;;;;;;5015003;28;20029;-69
2021/07/14 02:26:14;;;;;;;6.65;3.90;;;15.20;99.90;;;;;;5015922;28;20436;-68
2021/07/14 02:28:41;;;;;;;5.25;3.70;;;15.10;99.90;;;;;;5031318;28;20039;-68
2021/07/14 02:31:06;;;;;;;8.50;4.10;;;15.10;99.90;;;;;;5015842;28;20030;-68
2021/07/14 02:33:32;;;;;;;9.70;4.45;;;15.10;99.90;;;;;;5016074;28;20156;-69
2021/07/14 02:36:03;;;;;;;9.07;4.60;;;15.10;99.90;;;;;;5014359;28;20041;-68
2021/07/14 02:38:42;;;;;;;6.22;4.35;;;15.20;99.90;;;;;;5015954;28;20026;-69
2021/07/14 02:41:16;;;;;;;9.00;4.25;;;15.10;99.90;;;;;;5014550;28;20479;-69
2021/07/14 02:43:49;;;;;;;11.82;4.95;;;15.20;99.90;;;;;;5015632;28;20080;-69
2021/07/14 02:46:23;;;;;;;5.90;3.85;;;15.10;99.90;;;;;;5014591;28;20105;-69
2021/07/14 02:48:54;;;;;;;10.20;4.60;;;15.10;99.90;;;;;;5014788;28;20501;-69
2021/07/14 02:51:23;;;;;;;7.22;4.15;;;15.10;99.90;;;;;;5014541;28;20038;-69
2021/07/14 02:53:54;;;;;;;8.73;4.00;;;15.10;99.90;;;;;;5015790;28;20042;-69
2021/07/14 02:56:22;;;;;;;7.75;4.47;;;15.10;99.90;;;;;;5014118;28;20466;-69
2021/07/14 02:58:55;;;;;;;13.57;4.07;;;15.10;99.90;;;;;;5015677;28;20030;-69
2021/07/14 03:01:22;;;;;;;7.43;3.60;;;15.20;99.90;;;;;;5014085;28;20422;-69
2021/07/14 03:03:50;;;;;;;7.78;3.40;;;15.20;99.90;;;;;;5014135;28;20057;-69
2021/07/14 03:06:17;;;;;;;6.60;3.63;;;15.20;99.90;;;;;;5015166;28;20038;-69
2021/07/14 03:08:47;;;;;;;7.35;3.88;;;15.20;99.90;;;;;;5014407;28;20033;-69
2021/07/14 03:11:15;;;;;;;11.02;4.43;;;15.30;99.90;;;;;;5013693;28;20070;-69
2021/07/14 03:13:43;;;;;;;6.47;3.60;;;15.30;99.90;;;;;;5014035;28;20100;-69
2021/07/14 03:16:10;;;;;;;9.02;3.83;;;15.30;99.90;;;;;;5014067;28;20048;-69
2021/07/14 03:18:37;;;;;;;9.60;4.13;;;15.30;99.90;;;;;;5014006;28;20517;-69
2021/07/14 03:21:03;;;;;;;5.82;4.10;;;15.40;99.90;;;;;;5014069;28;20064;-69
2021/07/14 03:23:31;;;;;;;5.93;4.13;;;15.40;99.90;;;;;;5013656;28;20430;-69
2021/07/14 03:26:00;;;;;;;7.15;3.85;;;15.40;99.90;;;;;;5013723;28;20083;-69
2021/07/14 03:28:30;;;;;;;5.50;3.95;;;15.50;99.90;;;;;;5013975;28;20025;-69
2021/07/14 03:31:01;;;;;;;12.03;5.23;;;15.40;99.90;;;;;;5013600;28;20026;-69
2021/07/14 03:33:29;;;;;;;15.05;6.80;;;15.30;99.90;;;;;;5029876;28;20301;-69
2021/07/14 03:35:58;;;;;;;10.50;5.60;;;15.30;99.90;;;;;;5014908;28;20049;-69
2021/07/14 03:38:28;;;;;;;9.63;5.80;;;15.30;99.90;;;;;;5014893;28;20026;-69
2021/07/14 03:40:55;;;;;;;10.18;6.13;;;15.30;99.90;;;;;;5013375;28;20041;-69
2021/07/14 03:43:24;;;;;;;9.98;7.18;;;15.40;99.90;;;;;;5013148;28;20038;-68
2021/07/14 03:45:52;;;;;;;14.45;8.02;;;15.40;99.90;;;;;;5013436;28;20120;-68
2021/07/14 03:48:21;;;;;;;12.00;6.70;;;15.40;99.90;;;;;;5013374;28;20080;-68
2021/07/14 03:50:52;;;;;;;13.65;6.40;;;15.30;99.90;;;;;;5013526;28;20021;-68
2021/07/14 03:53:20;;;;;;;13.45;6.40;;;15.30;99.90;;;;;;5012997;28;20065;-68
2021/07/14 03:55:51;;;;;;;12.00;5.97;;;15.30;99.90;;;;;;5013371;28;20092;-68
2021/07/14 03:58:18;;;;;;;7.65;5.85;;;15.30;99.90;;;;;;5013142;28;20125;-68
2021/07/14 04:00:49;;;;;;;11.45;6.05;;;15.30;99.90;;;;;;5014413;28;20033;-69
2021/07/14 04:03:27;;;;;;;10.82;6.60;;;15.30;99.90;;;;;;5014267;28;20033;-69
2021/07/14 04:05:59;;;;;;;12.98;7.18;;;15.30;99.90;;;;;;5014189;28;20115;-68
2021/07/14 04:08:36;;;;;;;11.65;7.00;;;15.20;99.90;;;;;;5012742;28;20032;-69
2021/07/14 04:11:02;;;;;;;8.38;6.38;;;15.20;99.90;;;;;;5012758;28;20114;-69
2021/07/14 04:13:27;;;;;;;9.95;6.35;;;15.10;99.90;;;;;;5012774;28;20448;-69
2021/07/14 04:15:53;;;;;;;11.15;5.88;;;15.20;99.90;;;;;;5012565;28;20038;-69
2021/07/14 04:18:19;;;;;;;11.63;6.80;;;15.30;99.90;;;;;;5013608;28;20048;-69
2021/07/14 04:20:45;;;;;;;9.60;5.47;;;15.20;99.90;;;;;;5014139;28;20041;-69
2021/07/14 04:23:10;;;;;;;8.50;5.47;;;15.30;99.90;;;;;;5014041;28;20112;-69
2021/07/14 04:25:36;;;;;;;11.50;5.93;;;15.40;99.90;;;;;;5013578;28;20084;-69
2021/07/14 04:28:02;;;;;;;10.90;5.45;;;15.40;99.90;;;;;;5013682;28;20387;-69
2021/07/14 04:30:28;;;;;;;9.65;5.47;;;15.50;99.90;;;;;;5013629;28;20037;-67
2021/07/14 04:32:54;;;;;;;11.18;5.72;;;15.60;99.90;;;;;;5013941;28;20114;-68
2021/07/14 04:35:20;;;;;;;9.73;5.70;;;15.60;99.90;;;;;;5012597;28;20029;-68
2021/07/14 04:37:49;;;;;;;11.13;5.40;;;15.60;99.90;;;;;;5013426;28;20125;-68
2021/07/14 04:40:16;;;;;;;9.38;5.10;;;15.50;99.90;;;;;;5028654;28;20030;-69
2021/07/14 04:42:41;;;;;;;10.13;6.25;;;15.50;99.90;;;;;;5013367;28;20073;-69
2021/07/14 04:45:07;;;;;;;9.65;6.15;;;15.60;99.90;;;;;;5013399;28;20108;-69
2021/07/14 04:47:33;;;;;;;14.18;6.18;;;15.50;99.90;;;;;;5013255;28;20040;-68
2021/07/14 04:49:59;;;;;;;13.00;6.43;;;15.40;99.90;;;;;;5013275;28;20041;-68
2021/07/14 04:52:25;;;;;;;11.15;6.40;;;15.50;99.90;;;;;;5013429;28;20053;-69
2021/07/14 04:54:50;;;;;;;9.23;6.72;;;15.40;99.90;;;;;;5013534;28;20034;-68
2021/07/14 04:57:16;;;;;;;16.13;6.32;;;15.40;99.90;;;;;;5013264;28;20026;-69
2021/07/14 04:59:42;;;;;;;11.90;6.05;;;15.40;99.90;;;;;;5011957;28;20030;-69
2021/07/14 05:02:08;;;;;;;9.55;6.78;;;15.40;99.90;;;;;;5013218;28;20041;-69
2021/07/14 05:04:35;;;;;;;10.35;6.20;;;15.40;99.90;;;;;;5013318;28;20033;-69
2021/07/14 05:07:01;;;;;;;12.60;6.75;;;15.40;99.90;;;;;;5013076;28;20112;-69
2021/07/14 05:09:27;;;;;;;14.75;8.27;;;15.50;99.90;;;;;;5012781;28;20034;-68
2021/07/14 05:11:53;;;;;;;13.57;7.60;;;15.50;99.90;;;;;;5012990;28;20053;-69
2021/07/14 05:14:19;;;;;;;9.88;6.78;;;15.40;99.90;;;;;;5012982;28;20030;-69
2021/07/14 05:16:46;;;;;;;10.73;6.65;;;15.40;99.90;;;;;;5012678;28;20030;-68
2021/07/14 05:19:14;;;;;;;11.68;7.05;;;15.60;99.90;;;;;;5011667;28;20033;-69
2021/07/14 05:21:41;;;;;;;12.77;6.93;;;15.60;99.90;;;;;;5012700;28;20034;-69
2021/07/14 05:24:07;;;;;;;10.07;6.68;;;15.60;99.90;;;;;;5012776;28;20032;-69
2021/07/14 05:26:33;;;;;;;13.52;6.53;;;15.60;99.90;;;;;;5012496;28;20211;-70
2021/07/14 05:28:59;;;;;;;15.43;6.65;;;15.60;99.90;;;;;;5012935;28;20157;-69
2021/07/14 05:31:24;;;;;;;10.50;6.43;;;15.60;99.90;;;;;;5012547;28;20124;-69
2021/07/14 05:33:50;;;;;;;20.05;7.60;;;15.60;99.90;;;;;;5012569;28;20382;-69
2021/07/14 05:36:17;;;;;;;11.00;6.20;;;15.80;99.90;;;;;;5012829;28;20037;-69
2021/07/14 05:38:43;;;;;;;11.50;6.45;;;15.70;99.90;;;;;;5012793;28;20248;-69
2021/07/14 05:41:09;;;;;;;8.93;5.57;;;15.70;99.90;;;;;;5011563;28;20034;-68
2021/07/14 05:43:37;;;;;;;11.05;5.53;;;15.90;99.90;;;;;;5012438;28;20080;-69
2021/07/14 05:46:04;;;;;;;9.35;5.72;;;16.10;99.90;;;;;;5011778;28;20475;-69
2021/07/14 05:48:30;;;;;;;10.23;5.55;;;16.20;99.90;;;;;;5012278;28;20037;-69
2021/07/14 05:50:57;;;;;;;8.95;5.00;;;16.20;99.90;;;;;;5012598;28;20030;-69
2021/07/14 05:53:26;;;;;;;8.80;5.22;;;16.30;99.90;;;;;;5012197;28;20061;-69
2021/07/14 05:55:52;;;;;;;11.05;4.88;;;16.40;99.90;;;;;;5012484;28;20026;-69
2021/07/14 05:58:18;;;;;;;7.57;4.70;;;16.40;99.90;;;;;;5012603;28;20084;-68
2021/07/14 06:00:44;;;;;;;9.82;4.53;;;16.50;99.90;;;;;;5012356;28;20033;-70
2021/07/14 06:03:10;;;;;;;6.43;4.65;;;16.50;99.90;;;;;;5012286;28;20048;-68
2021/07/14 06:05:36;;;;;;;8.65;4.65;;;16.60;99.90;;;;;;5012509;28;20030;-70
2021/07/14 06:08:04;;;;;;;10.13;6.40;;;16.40;99.90;;;;;;5012643;28;20387;-70
2021/07/14 06:10:30;;;;;;;11.75;5.90;;;16.30;99.90;;;;;;5011969;28;20080;-69
2021/07/14 06:12:56;;;;;;;9.63;5.72;;;16.20;99.90;;;;;;5012088;28;20495;-69
2021/07/14 06:15:27;;;;;;;10.93;6.80;;;16.20;99.90;;;;;;5012328;28;20077;-70
2021/07/14 06:17:54;;;;;;;14.27;6.72;;;16.20;99.90;;;;;;5012451;28;20056;-70
2021/07/14 06:20:21;;;;;;;10.65;5.70;;;16.30;99.90;;;;;;5012163;28;20395;-69
2021/07/14 06:22:47;;;;;;;8.90;5.70;;;16.10;99.90;;;;;;5012063;28;20034;-70
2021/07/14 06:25:13;;;;;;;11.90;5.40;;;16.20;99.90;;;;;;5012176;28;20029;-68
2021/07/14 06:27:42;;;;;;;8.82;5.15;;;16.20;99.90;;;;;;5012014;28;20387;-70
2021/07/14 06:30:10;;;;;;;8.95;5.80;;;16.20;99.90;;;;;;5012090;28;20539;-69
2021/07/14 06:32:37;;;;;;;12.25;5.38;;;16.20;99.90;;;;;;5012098;28;20034;-70
2021/07/14 06:35:05;;;;;;;9.93;5.03;;;16.10;99.90;;;;;;5011877;28;20034;-70
2021/07/14 06:37:31;;;;;;;7.63;5.38;;;16.10;99.90;;;;;;5012104;28;20164;-69
2021/07/14 06:39:57;;;;;;;9.32;5.85;;;16.10;99.90;;;;;;5011972;28;20065;-69
2021/07/14 06:42:23;;;;;;;8.75;5.82;;;16.00;99.90;;;;;;5012247;28;20033;-69
2021/07/14 06:44:48;;;;;;;7.57;5.22;;;16.10;99.90;;;;;;5011709;28;20026;-69
2021/07/14 06:47:14;;;;;;;9.05;4.68;;;16.20;99.90;;;;;;5012186;28;20041;-68
2021/07/14 06:49:40;;;;;;;9.68;5.30;;;16.20;99.90;;;;;;5012039;28;20041;-69
2021/07/14 06:52:06;;;;;;;8.80;6.15;;;16.10;99.90;;;;;;5011746;28;20034;-69
2021/07/14 06:54:32;;;;;;;12.63;5.75;;;16.20;99.90;;;;;;5012021;28;20042;-69
2021/07/14 06:56:59;;;;;;;13.75;5.95;;;16.20;99.90;;;;;;5011128;28;20064;-68
2021/07/14 06:59:25;;;;;;;11.68;6.55;;;16.10;99.90;;;;;;5015480;28;20038;-69
2021/07/14 07:01:50;;;;;;;10.15;5.40;;;16.10;99.90;;;;;;5015436;28;20072;-70
2021/07/14 07:04:16;;;;;;;11.48;6.50;;;16.00;99.90;;;;;;5015665;28;20459;-69
2021/07/14 07:06:42;;;;;;;9.07;5.85;;;16.00;99.90;;;;;;5015478;28;20033;-69
2021/07/14 07:09:08;;;;;;;15.63;6.78;;;16.10;99.90;;;;;;5015276;28;20479;-70
2021/07/14 07:11:36;;;;;;;12.45;6.18;;;16.10;99.90;;;;;;5014889;28;20041;-69
2021/07/14 07:14:05;;;;;;;12.80;5.90;;;16.20;99.90;;;;;;5015576;28;20477;-68
2021/07/14 07:16:31;;;;;;;12.45;5.60;;;16.00;99.90;;;;;;5015175;28;20505;-70
2021/07/14 07:18:57;;;;;;;11.60;5.38;;;16.10;99.90;;;;;;5015369;28;20084;-69
2021/07/14 07:21:23;;;;;;;13.60;6.22;;;16.00;99.90;;;;;;5015387;28;20395;-68
2021/07/14 07:23:49;;;;;;;14.55;5.38;;;16.00;99.90;;;;;;5015269;28;20034;-69
2021/07/14 07:26:15;;;;;;;10.82;6.47;;;16.20;99.90;;;;;;5015023;28;20152;-70
2021/07/14 07:28:42;;;;;;;13.23;5.57;;;16.20;99.90;;;;;;5015082;28;20037;-70
2021/07/14 07:31:11;;;;;;;7.85;5.63;;;16.20;99.90;;;;;;5014933;28;20475;-69
2021/07/14 07:33:38;;;;;;;11.90;6.93;;;16.20;99.90;;;;;;5014639;28;20034;-69
2021/07/14 07:36:05;;;;;;;12.75;6.75;;;16.20;99.90;;;;;;5013452;28;20394;-68
2021/07/14 07:38:40;;;;;;;9.63;6.30;;;16.20;99.90;;;;;;5014924;28;20034;-69
2021/07/14 07:41:06;;;;;;;11.00;5.85;;;16.20;99.90;;;;;;5014729;28;20034;-69
2021/07/14 07:43:32;;;;;;;14.70;7.18;;;16.20;99.90;;;;;;5014791;28;20026;-69
2021/07/14 07:45:58;;;;;;;9.40;5.85;;;16.20;99.90;;;;;;5014568;28;20057;-68
2021/07/14 07:48:25;;;;;;;10.80;6.30;;;16.30;99.90;;;;;;5014935;28;20511;-68
2021/07/14 07:50:51;;;;;;;8.88;6.53;;;16.40;99.90;;;;;;5014724;28;20077;-67
2021/07/14 07:53:21;;;;;;;9.73;5.88;;;16.40;99.90;;;;;;5014928;28;20042;-68
2021/07/14 07:55:50;;;;;;;10.43;5.45;;;16.40;99.90;;;;;;5014441;28;20461;-68
2021/07/14 07:58:17;;;;;;;10.52;5.40;;;16.50;99.90;;;;;;5014664;28;20030;-69
2021/07/14 08:00:43;;;;;;;9.45;5.55;;;16.50;99.90;;;;;;5014132;28;20030;-69
2021/07/14 08:03:09;;;;;;;8.00;5.40;;;16.50;99.90;;;;;;5014395;28;20037;-69
2021/07/14 08:05:35;;;;;;;8.95;5.38;;;16.50;99.90;;;;;;5014110;28;20034;-68
2021/07/14 08:08:02;;;;;;;8.45;5.13;;;16.60;99.90;;;;;;5012673;28;20029;-69
2021/07/14 08:10:28;;;;;;;10.50;5.93;;;16.50;99.90;;;;;;5013531;28;20033;-68
2021/07/14 08:12:54;;;;;;;11.48;5.78;;;16.60;99.90;;;;;;5013748;28;20103;-68
2021/07/14 08:15:20;;;;;;;11.60;5.70;;;16.70;99.90;;;;;;5013953;28;20029;-68
2021/07/14 08:17:45;;;;;;;9.77;5.75;;;16.60;99.90;;;;;;5014049;28;20084;-68
2021/07/14 08:20:12;;;;;;;7.30;5.57;;;16.50;99.90;;;;;;5014243;28;20026;-68
2021/07/14 08:22:39;;;;;;;9.13;6.53;;;16.50;99.90;;;;;;5013675;28;20038;-69
2021/07/14 08:25:07;;;;;;;7.20;5.80;;;16.50;99.90;;;;;;5013832;28;20041;-69
2021/07/14 08:27:34;;;;;;;8.90;5.70;;;16.40;99.90;;;;;;5013606;28;20037;-69
2021/07/14 08:30:00;;;;;;;10.30;6.05;;;16.40;99.90;;;;;;5013770;28;20026;-69
2021/07/14 08:32:28;;;;;;;10.05;5.93;;;16.30;99.90;;;;;;5013671;28;20441;-69
2021/07/14 08:34:55;;;;;;;7.85;5.63;;;16.30;99.90;;;;;;5013666;28;20057;-69
2021/07/14 08:37:22;;;;;;;9.07;5.93;;;16.30;99.90;;;;;;5013708;28;20030;-69
2021/07/14 08:39:53;;;;;;;8.23;5.07;;;16.50;99.90;;;;;;5013642;28;20128;-68
2021/07/14 08:42:21;;;;;;;7.13;5.00;;;16.50;99.90;;;;;;5013508;28;20117;-69
2021/07/14 08:44:49;;;;;;;7.72;4.82;;;16.60;99.90;;;;;;5013602;28;20057;-69
2021/07/14 08:47:16;;;;;;;9.15;4.93;;;16.50;99.90;;;;;;5013722;28;20029;-69
2021/07/14 08:49:46;;;;;;;10.27;5.75;;;16.60;99.90;;;;;;5013165;28;20034;-69
2021/07/14 08:52:13;;;;;;;9.20;4.40;;;16.60;99.90;;;;;;5013318;28;20487;-69
2021/07/14 08:54:41;;;;;;;8.68;5.28;;;16.70;99.90;;;;;;5013460;28;20053;-69
2021/07/14 08:57:09;;;;;;;9.80;5.50;;;16.80;99.90;;;;;;5012261;28;20026;-68
2021/07/14 08:59:35;;;;;;;6.60;4.18;;;16.80;99.90;;;;;;5013153;28;20041;-68
2021/07/14 09:02:01;;;;;;;9.07;4.65;;;16.70;99.90;;;;;;5028690;28;20606;-69
2021/07/14 09:04:27;;;;;;;7.60;4.72;;;16.70;99.90;;;;;;5013193;28;20116;-69
2021/07/14 09:06:53;;;;;;;6.18;4.38;;;16.70;99.90;;;;;;5013022;28;20105;-68
2021/07/14 09:09:19;;;;;;;7.32;4.55;;;16.70;99.90;;;;;;5028251;28;20478;-68
2021/07/14 09:12:00;;;;;;;5.40;3.65;;;16.80;99.90;;;;;;5012591;28;20042;-68
2021/07/14 09:14:35;;;;;;;7.28;4.50;;;17.00;99.90;;;;;;5013269;28;20537;-69
2021/07/14 09:17:24;;;;;;;6.47;3.60;;;16.90;99.90;;;;;;5012915;28;20045;-69
2021/07/14 09:20:19;;;;;;;5.65;3.88;;;16.90;99.90;;;;;;5012692;28;20040;-69
2021/07/14 09:22:46;;;;;;;8.65;3.83;;;16.90;99.90;;;;;;5012905;28;20041;-69
2021/07/14 09:25:17;;;;;;;6.75;3.88;;;16.90;99.90;;;;;;5013008;28;20030;-68
2021/07/14 09:28:02;;;;;;;;;;;16.90;99.90;;;;;;5013094;28;20395;-69
2021/07/14 09:30:28;;;;;;;10.27;4.07;;;16.90;99.90;;;;;;5011758;28;19980;-68
2021/07/14 09:32:59;;;;;;;8.20;3.15;;;16.90;99.90;;;;;;5012748;28;20487;-68
2021/07/14 09:35:42;;;;;;;7.97;3.60;;;16.90;99.90;;;;;;5012821;28;20138;-68
2021/07/14 09:38:21;;;;;;;5.20;3.35;;;16.90;99.90;;;;;;5012744;28;20041;-68
2021/07/14 09:40:51;;;;;;;6.75;3.10;;;16.90;99.90;;;;;;5012710;28;20026;-68
2021/07/14 09:43:29;;;;;;;8.73;3.35;;;16.90;99.90;;;;;;5012578;28;20080;-69
2021/07/14 09:46:06;;;;;;;7.90;3.83;;;16.80;99.90;;;;;;5012685;28;20172;-68
2021/07/14 09:48:42;;;;;;;10.52;3.90;;;16.90;99.90;;;;;;5012714;28;20038;-68
2021/07/14 09:51:16;;;;;;;7.80;3.72;;;16.80;99.90;;;;;;5013010;28;20104;-69
2021/07/14 09:53:54;;;;;;;5.88;3.72;;;16.90;99.90;;;;;;5012185;28;20030;-68
2021/07/14 09:56:28;;;;;;;13.68;3.50;;;16.80;99.90;;;;;;5012792;28;20077;-68
2021/07/14 09:59:12;;;;;;;7.53;3.70;;;16.90;99.90;;;;;;5012311;28;20030;-68
2021/07/14 10:01:47;;;;;;;6.78;3.50;;;16.80;99.90;;;;;;5011052;28;20029;-69
2021/07/14 10:04:28;;;;;;;9.35;4.85;;;16.90;99.90;;;;;;5012600;28;20069;-68
2021/07/14 10:07:05;;;;;;;5.88;3.60;;;16.90;99.90;;;;;;5012277;28;20414;-69
2021/07/14 10:09:31;;;;;;;7.15;3.50;;;16.90;99.90;;;;;;5012369;28;20556;-69
2021/07/14 10:12:34;;;;;;;7.47;3.78;;;16.80;99.90;;;;;;5011977;28;20046;-69
2021/07/14 10:15:16;;;;;;;6.45;3.70;;;16.90;99.90;;;;;;5012149;28;20033;-69
2021/07/14 10:17:51;;;;;;;7.70;3.55;;;16.90;99.90;;;;;;5012304;28;20430;-68
2021/07/14 10:20:29;;;;;;;6.93;3.90;;;16.90;99.90;;;;;;5012505;28;20061;-69
2021/07/14 10:23:15;;;;;;;8.93;4.50;;;16.90;99.90;;;;;;5012122;28;20424;-68
2021/07/14 10:25:44;;;;;;;7.43;3.90;;;16.90;99.90;;;;;;5012376;28;20471;-68
2021/07/14 10:28:13;;;;;;;7.07;4.20;;;16.90;99.90;;;;;;5012152;28;20161;-69
2021/07/14 10:30:42;;;;;;;7.30;4.15;;;16.90;99.90;;;;;;5012260;28;20069;-69
2021/07/14 10:33:11;;;;;;;7.45;4.53;;;16.80;99.90;;;;;;5014516;28;20044;-69
2021/07/14 10:35:42;;;;;;;10.55;4.30;;;16.80;99.90;;;;;;5015779;28;20041;-69
2021/07/14 10:38:28;;;;;;;8.35;3.67;;;16.70;99.90;;;;;;5016121;28;20034;-69
2021/07/14 10:40:56;;;;;;;8.90;4.30;;;16.70;99.90;;;;;;5015948;28;20036;-70
2021/07/14 10:43:26;;;;;;;9.75;4.55;;;16.80;99.90;;;;;;5015830;28;20102;-68
2021/07/14 10:45:52;;;;;;;5.38;3.80;;;16.70;99.90;;;;;;5015466;28;20033;-69
2021/07/14 10:48:21;;;;;;;5.28;3.58;;;16.70;99.90;;;;;;5015937;28;20132;-69
2021/07/14 10:50:48;;;;;;;5.97;3.80;;;16.60;99.90;;;;;;5015450;28;20030;-69
2021/07/14 10:53:17;;;;;;;7.93;3.88;;;16.70;99.90;;;;;;5015514;28;20490;-69
2021/07/14 10:55:48;;;;;;;7.15;3.50;;;16.60;99.90;;;;;;5015357;28;20029;-69
2021/07/14 10:58:21;;;;;;;6.18;3.92;;;16.70;99.90;;;;;;5015820;28;20062;-69
2021/07/14 11:00:47;;;;;;;5.60;3.13;;;16.80;99.90;;;;;;5015297;28;20034;-69
2021/07/14 11:03:33;;;;;;;8.90;3.78;;;16.70;99.90;;;;;;5015490;28;20114;-69
2021/07/14 11:06:00;;;;;;;6.63;3.85;;;16.70;99.90;;;;;;5015405;28;20113;-68
2021/07/14 11:08:50;;;;;;;6.22;4.28;;;16.80;99.90;;;;;;5015508;28;20030;-68
2021/07/14 11:11:19;;;;;;;7.10;3.87;;;16.60;99.90;;;;;;5013845;28;20032;-70
2021/07/14 11:14:05;;;;;;;8.05;4.38;;;16.70;99.90;;;;;;5015089;28;20659;-69
2021/07/14 11:16:37;;;;;;;10.38;5.88;;;16.80;99.90;;;;;;5013964;28;20541;-69
2021/07/14 11:19:13;;;;;;;11.80;4.20;;;16.80;99.90;;;;;;5015243;28;20029;-70
2021/07/14 11:22:03;;;;;;;5.78;3.92;;;16.70;99.90;;;;;;5014922;28;20368;-69
2021/07/14 11:24:39;;;;;;;9.33;4.17;;;16.80;99.90;;;;;;5015357;28;20087;-70
2021/07/14 11:27:26;;;;;;;7.25;4.05;;;16.80;99.90;;;;;;5015055;28;20042;-68
2021/07/14 11:30:02;;;;;;;8.98;4.38;;;16.80;99.90;;;;;;5015034;28;20387;-69
2021/07/14 11:32:34;;;;;;;5.55;3.88;;;16.80;99.90;;;;;;5014809;28;20037;-70
2021/07/14 11:35:20;;;;;;;8.50;4.30;;;16.70;99.90;;;;;;5014885;28;20030;-70
2021/07/14 11:37:52;;;;;;;7.25;4.55;;;16.70;99.90;;;;;;5014822;28;20556;-69
2021/07/14 11:40:18;;;;;;;8.55;4.53;;;16.60;99.90;;;;;;5014691;28;20048;-70
2021/07/14 11:43:03;;;;;;;7.65;4.47;;;16.60;99.90;;;;;;5014417;28;20076;-70
2021/07/14 11:45:38;;;;;;;8.50;4.50;;;16.60;99.90;;;;;;5014928;28;20030;-70
2021/07/14 11:48:08;;;;;;;7.25;4.07;;;16.60;99.90;;;;;;5014647;28;20434;-69
2021/07/14 11:50:43;;;;;;;6.93;4.60;;;16.70;99.90;;;;;;5014415;28;20073;-69
2021/07/14 11:53:33;;;;;;;9.20;4.68;;;16.70;99.90;;;;;;5014297;28;20060;-69
2021/07/14 11:56:19;;;;;;;10.40;5.13;;;16.60;99.90;;;;;;5014276;28;20112;-69
2021/07/14 11:58:48;;;;;;;6.10;4.38;;;16.60;99.90;;;;;;5014538;28;20125;-70
2021/07/14 12:01:24;;;;;;;6.63;4.40;;;16.60;99.90;;;;;;5014522;28;20113;-70
2021/07/14 12:04:02;;;;;;;8.10;4.70;;;16.70;99.90;;;;;;5014153;28;20034;-69
2021/07/14 12:07:04;;;;;;;7.57;5.07;;;16.70;99.90;;;;;;5029476;28;20038;-69
2021/07/14 12:09:33;;;;;;;8.48;4.68;;;16.80;99.90;;;;;;5014184;28;20435;-69
2021/07/14 12:12:12;;;;;;;6.70;4.40;;;16.80;99.90;;;;;;5013838;28;20053;-69
2021/07/14 12:14:43;;;;;;;7.47;4.75;;;16.80;99.90;;;;;;5013044;28;20041;-69
2021/07/14 12:17:22;;;;;;;7.53;4.53;;;16.80;99.90;;;;;;5013679;28;20037;-70
2021/07/14 12:19:58;;;;;;;9.05;4.68;;;16.80;99.90;;;;;;5014030;28;20033;-69
2021/07/14 12:22:35;;;;;;;9.43;4.75;;;16.80;99.90;;;;;;5013722;28;20518;-69
2021/07/14 12:25:14;;;;;;;9.73;5.00;;;16.90;99.90;;;;;;5013569;28;20033;-69
2021/07/14 12:27:45;;;;;;;7.38;4.80;;;17.00;99.90;;;;;;5013657;28;20493;-69
2021/07/14 12:30:23;;;;;;;8.63;4.82;;;17.10;99.90;;;;;;5013730;28;20524;-69
2021/07/14 12:32:58;;;;;;;12.10;3.90;;;17.20;99.90;;;;;;5013784;28;20018;-69
2021/07/14 12:35:42;;;;;;;7.85;3.67;;;17.30;99.90;;;;;;5013613;28;20060;-69
2021/07/14 12:38:15;;;;;;;7.72;4.18;;;17.20;99.90;;;;;;5013423;28;20125;-69
2021/07/14 12:40:51;;;;;;;6.90;3.03;;;17.50;99.90;;;;;;5013647;28;20028;-70
2021/07/14 12:43:22;;;;;;;8.70;3.85;;;17.50;99.90;;;;;;5013684;28;20068;-69
2021/07/14 12:45:56;;;;;;;7.78;4.13;;;17.60;99.90;;;;;;5013533;28;20125;-70
2021/07/14 12:48:28;;;;;;;6.03;3.90;;;17.70;99.90;;;;;;5012233;28;20129;-70
2021/07/14 12:50:54;;;;;;;6.55;3.78;;;17.80;99.90;;;;;;5013145;28;20040;-70
2021/07/14 12:53:21;;;;;;;4.05;2.50;;;17.90;99.90;;;;;;5013228;28;20058;-70
2021/07/14 12:55:49;;;;;;;4.55;2.70;;;18.00;99.90;;;;;;5012777;28;20529;-70
2021/07/14 12:58:18;;;;;;;4.70;2.42;;;18.20;99.90;;;;;;5012045;28;20072;-69
2021/07/14 13:00:45;;;;;;;4.47;3.13;;;18.30;99.90;;;;;;5013346;28;20037;-69
2021/07/14 13:03:26;;;;;;;4.22;2.55;;;18.40;99.90;;;;;;5011448;28;20459;-69
2021/07/14 13:05:53;;;;;;;4.85;2.50;;;18.30;99.90;;;;;;5013170;28;20434;-69
2021/07/14 13:08:28;;;;;;;3.42;2.30;;;18.30;99.90;;;;;;5011661;28;20029;-69
2021/07/14 13:11:00;;;;;;;4.50;2.70;;;18.40;99.90;;;;;;5012774;28;20136;-69